sensor_id;sensor_type;location;lat;lon;timestamp;P1;durP1;ratioP1;P2;durP2;ratioP2
47894;SDS011;33653;52.302;8.134;2023-02-12T00:01:23;11.13;;;3.90;;
47894;SDS011;33653;52.302;8.134;2023-02-12T00:03:53;6.97;;;4.18;;
47894;SDS011;33653;52.302;8.134;2023-02-12T00:06:21;8.85;;;4.93;;
47894;SDS011;33653;52.302;8.134;2023-02-12T00:08:50;7.28;;;4.13;;
47894;SDS011;33653;52.302;8.134;2023-02-12T00:11:22;11.05;;;4.70;;
47894;SDS011;33653;52.302;8.134;2023-02-12T00:13:53;10.32;;;5.40;;
47894;SDS011;33653;52.302;8.134;2023-02-12T00:16:23;8.30;;;4.55;;
47894;SDS011;33653;52.302;8.134;2023-02-12T00:21:22;8.38;;;3.97;;
47894;SDS011;33653;52.302;8.134;2023-02-12T00:23:50;8.45;;;4.53;;
47894;SDS011;33653;52.302;8.134;2023-02-12T00:26:19;8.65;;;5.13;;
47894;SDS011;33653;52.302;8.134;2023-02-12T00:28:50;8.40;;;4.57;;
47894;SDS011;33653;52.302;8.134;2023-02-12T00:31:22;8.07;;;4.28;;
47894;SDS011;33653;52.302;8.134;2023-02-12T00:33:55;7.05;;;4.57;;
47894;SDS011;33653;52.302;8.134;2023-02-12T00:36:26;8.88;;;3.95;;
47894;SDS011;33653;52.302;8.134;2023-02-12T00:41:24;5.72;;;4.30;;
47894;SDS011;33653;52.302;8.134;2023-02-12T00:43:53;10.13;;;4.15;;
47894;SDS011;33653;52.302;8.134;2023-02-12T00:46:21;6.80;;;4.13;;
47894;SDS011;33653;52.302;8.134;2023-02-12T00:48:49;11.60;;;5.28;;
47894;SDS011;33653;52.302;8.134;2023-02-12T00:51:19;10.70;;;4.82;;
47894;SDS011;33653;52.302;8.134;2023-02-12T00:53:47;8.15;;;4.45;;
47894;SDS011;33653;52.302;8.134;2023-02-12T00:56:15;8.55;;;4.45;;
47894;SDS011;33653;52.302;8.134;2023-02-12T00:58:43;5.65;;;3.97;;
47894;SDS011;33653;52.302;8.134;2023-02-12T01:01:11;6.50;;;4.53;;
47894;SDS011;33653;52.302;8.134;2023-02-12T01:03:39;9.48;;;4.40;;
47894;SDS011;33653;52.302;8.134;2023-02-12T01:06:07;10.90;;;5.15;;
47894;SDS011;33653;52.302;8.134;2023-02-12T01:08:34;8.48;;;4.78;;
47894;SDS011;33653;52.302;8.134;2023-02-12T01:11:03;8.50;;;5.03;;
47894;SDS011;33653;52.302;8.134;2023-02-12T01:13:33;6.75;;;4.00;;
47894;SDS011;33653;52.302;8.134;2023-02-12T01:16:05;7.18;;;4.15;;
47894;SDS011;33653;52.302;8.134;2023-02-12T01:18:43;8.82;;;5.13;;
47894;SDS011;33653;52.302;8.134;2023-02-12T01:21:13;10.05;;;5.45;;
47894;SDS011;33653;52.302;8.134;2023-02-12T01:23:48;15.10;;;5.63;;
47894;SDS011;33653;52.302;8.134;2023-02-12T01:26:17;7.32;;;4.65;;
47894;SDS011;33653;52.302;8.134;2023-02-12T01:28:53;10.50;;;5.75;;
47894;SDS011;33653;52.302;8.134;2023-02-12T01:31:26;10.70;;;6.35;;
47894;SDS011;33653;52.302;8.134;2023-02-12T01:34:01;12.05;;;5.75;;
47894;SDS011;33653;52.302;8.134;2023-02-12T01:36:29;12.85;;;6.63;;
47894;SDS011;33653;52.302;8.134;2023-02-12T01:38:57;14.68;;;6.25;;
47894;SDS011;33653;52.302;8.134;2023-02-12T01:41:27;9.52;;;5.80;;
47894;SDS011;33653;52.302;8.134;2023-02-12T01:44:04;14.65;;;7.53;;
47894;SDS011;33653;52.302;8.134;2023-02-12T01:46:36;13.60;;;6.78;;
47894;SDS011;33653;52.302;8.134;2023-02-12T01:49:06;19.20;;;7.85;;
47894;SDS011;33653;52.302;8.134;2023-02-12T01:52:02;12.77;;;7.53;;
47894;SDS011;33653;52.302;8.134;2023-02-12T01:54:37;22.33;;;8.53;;
47894;SDS011;33653;52.302;8.134;2023-02-12T01:57:05;17.33;;;8.23;;
47894;SDS011;33653;52.302;8.134;2023-02-12T01:59:36;16.75;;;7.85;;
47894;SDS011;33653;52.302;8.134;2023-02-12T02:02:04;14.95;;;7.80;;
47894;SDS011;33653;52.302;8.134;2023-02-12T02:04:35;11.18;;;7.78;;
47894;SDS011;33653;52.302;8.134;2023-02-12T02:07:10;14.20;;;8.38;;
47894;SDS011;33653;52.302;8.134;2023-02-12T02:09:39;21.13;;;8.60;;
47894;SDS011;33653;52.302;8.134;2023-02-12T02:12:07;13.20;;;8.63;;
47894;SDS011;33653;52.302;8.134;2023-02-12T02:14:57;21.73;;;7.90;;
47894;SDS011;33653;52.302;8.134;2023-02-12T02:26:32;23.05;;;8.55;;
47894;SDS011;33653;52.302;8.134;2023-02-12T02:37:59;18.83;;;8.95;;
47894;SDS011;33653;52.302;8.134;2023-02-12T02:41:01;20.53;;;9.00;;
47894;SDS011;33653;52.302;8.134;2023-02-12T02:43:37;12.80;;;7.35;;
47894;SDS011;33653;52.302;8.134;2023-02-12T02:46:31;15.95;;;8.18;;
47894;SDS011;33653;52.302;8.134;2023-02-12T02:49:06;18.92;;;8.70;;
47894;SDS011;33653;52.302;8.134;2023-02-12T02:51:43;15.48;;;9.43;;
47894;SDS011;33653;52.302;8.134;2023-02-12T02:54:36;15.65;;;9.32;;
47894;SDS011;33653;52.302;8.134;2023-02-12T02:57:16;21.35;;;8.52;;
47894;SDS011;33653;52.302;8.134;2023-02-12T03:00:12;20.02;;;8.77;;
47894;SDS011;33653;52.302;8.134;2023-02-12T03:02:51;24.10;;;9.68;;
47894;SDS011;33653;52.302;8.134;2023-02-12T03:05:43;15.52;;;8.95;;
47894;SDS011;33653;52.302;8.134;2023-02-12T03:08:18;15.40;;;8.43;;
47894;SDS011;33653;52.302;8.134;2023-02-12T03:10:52;16.98;;;8.45;;
47894;SDS011;33653;52.302;8.134;2023-02-12T03:14:01;15.70;;;8.80;;
47894;SDS011;33653;52.302;8.134;2023-02-12T03:19:26;16.48;;;7.55;;
47894;SDS011;33653;52.302;8.134;2023-02-12T03:22:07;20.50;;;9.15;;
47894;SDS011;33653;52.302;8.134;2023-02-12T03:24:43;17.40;;;9.35;;
47894;SDS011;33653;52.302;8.134;2023-02-12T03:27:56;16.75;;;9.20;;
47894;SDS011;33653;52.302;8.134;2023-02-12T03:31:05;16.08;;;9.23;;
47894;SDS011;33653;52.302;8.134;2023-02-12T03:39:33;15.55;;;8.68;;
47894;SDS011;33653;52.302;8.134;2023-02-12T03:44:50;18.50;;;9.05;;
47894;SDS011;33653;52.302;8.134;2023-02-12T03:47:32;17.40;;;9.77;;
47894;SDS011;33653;52.302;8.134;2023-02-12T03:52:56;23.35;;;11.20;;
47894;SDS011;33653;52.302;8.134;2023-02-12T03:55:25;18.27;;;10.25;;
47894;SDS011;33653;52.302;8.134;2023-02-12T03:57:54;22.17;;;9.25;;
47894;SDS011;33653;52.302;8.134;2023-02-12T04:00:27;23.77;;;10.68;;
47894;SDS011;33653;52.302;8.134;2023-02-12T04:02:55;17.67;;;10.38;;
47894;SDS011;33653;52.302;8.134;2023-02-12T04:05:24;25.90;;;10.27;;
47894;SDS011;33653;52.302;8.134;2023-02-12T04:07:54;25.55;;;11.15;;
47894;SDS011;33653;52.302;8.134;2023-02-12T04:10:28;18.17;;;9.85;;
47894;SDS011;33653;52.302;8.134;2023-02-12T04:15:59;20.80;;;10.70;;
47894;SDS011;33653;52.302;8.134;2023-02-12T04:18:35;23.42;;;9.95;;
47894;SDS011;33653;52.302;8.134;2023-02-12T04:21:17;19.90;;;10.70;;
47894;SDS011;33653;52.302;8.134;2023-02-12T04:24:18;18.15;;;10.18;;
47894;SDS011;33653;52.302;8.134;2023-02-12T04:30:06;18.70;;;11.23;;
47894;SDS011;33653;52.302;8.134;2023-02-12T04:32:52;20.75;;;10.45;;
47894;SDS011;33653;52.302;8.134;2023-02-12T04:35:33;23.55;;;10.55;;
47894;SDS011;33653;52.302;8.134;2023-02-12T04:38:22;21.95;;;10.65;;
47894;SDS011;33653;52.302;8.134;2023-02-12T04:40:55;19.40;;;10.30;;
47894;SDS011;33653;52.302;8.134;2023-02-12T04:43:27;20.33;;;9.77;;
47894;SDS011;33653;52.302;8.134;2023-02-12T04:46:03;22.33;;;11.15;;
47894;SDS011;33653;52.302;8.134;2023-02-12T04:48:34;20.65;;;11.73;;
47894;SDS011;33653;52.302;8.134;2023-02-12T04:51:18;20.40;;;11.57;;
47894;SDS011;33653;52.302;8.134;2023-02-12T04:53:46;19.27;;;10.88;;
47894;SDS011;33653;52.302;8.134;2023-02-12T04:56:14;23.45;;;11.10;;
47894;SDS011;33653;52.302;8.134;2023-02-12T04:58:42;22.30;;;11.07;;
47894;SDS011;33653;52.302;8.134;2023-02-12T05:01:11;21.00;;;12.32;;
47894;SDS011;33653;52.302;8.134;2023-02-12T05:03:39;22.98;;;11.77;;
47894;SDS011;33653;52.302;8.134;2023-02-12T05:06:07;25.20;;;11.98;;
47894;SDS011;33653;52.302;8.134;2023-02-12T05:08:35;24.38;;;12.18;;
47894;SDS011;33653;52.302;8.134;2023-02-12T05:11:07;22.65;;;10.50;;
47894;SDS011;33653;52.302;8.134;2023-02-12T05:13:36;26.70;;;10.95;;
47894;SDS011;33653;52.302;8.134;2023-02-12T05:16:06;23.08;;;12.05;;
47894;SDS011;33653;52.302;8.134;2023-02-12T05:18:34;20.05;;;11.88;;
47894;SDS011;33653;52.302;8.134;2023-02-12T05:21:03;24.60;;;11.90;;
47894;SDS011;33653;52.302;8.134;2023-02-12T05:23:32;24.73;;;12.23;;
47894;SDS011;33653;52.302;8.134;2023-02-12T05:26:03;23.65;;;12.02;;
47894;SDS011;33653;52.302;8.134;2023-02-12T05:28:36;23.48;;;11.77;;
47894;SDS011;33653;52.302;8.134;2023-02-12T05:31:05;20.48;;;11.88;;
47894;SDS011;33653;52.302;8.134;2023-02-12T05:33:35;21.60;;;11.55;;
47894;SDS011;33653;52.302;8.134;2023-02-12T05:36:04;21.42;;;11.70;;
47894;SDS011;33653;52.302;8.134;2023-02-12T05:38:34;30.30;;;12.18;;
47894;SDS011;33653;52.302;8.134;2023-02-12T05:41:03;21.08;;;11.43;;
47894;SDS011;33653;52.302;8.134;2023-02-12T05:43:33;28.07;;;12.23;;
47894;SDS011;33653;52.302;8.134;2023-02-12T05:46:01;28.67;;;12.93;;
47894;SDS011;33653;52.302;8.134;2023-02-12T05:48:31;28.25;;;13.05;;
47894;SDS011;33653;52.302;8.134;2023-02-12T05:51:01;28.10;;;12.85;;
47894;SDS011;33653;52.302;8.134;2023-02-12T05:53:30;25.00;;;12.93;;
47894;SDS011;33653;52.302;8.134;2023-02-12T05:56:09;30.05;;;13.05;;
47894;SDS011;33653;52.302;8.134;2023-02-12T05:58:42;26.83;;;12.70;;
47894;SDS011;33653;52.302;8.134;2023-02-12T06:01:14;28.27;;;12.95;;
47894;SDS011;33653;52.302;8.134;2023-02-12T06:04:19;23.58;;;12.85;;
47894;SDS011;33653;52.302;8.134;2023-02-12T06:06:50;20.13;;;11.40;;
47894;SDS011;33653;52.302;8.134;2023-02-12T06:09:19;28.08;;;12.57;;
47894;SDS011;33653;52.302;8.134;2023-02-12T06:11:47;23.85;;;12.43;;
47894;SDS011;33653;52.302;8.134;2023-02-12T06:14:17;28.33;;;13.32;;
47894;SDS011;33653;52.302;8.134;2023-02-12T06:16:49;28.70;;;13.48;;
47894;SDS011;33653;52.302;8.134;2023-02-12T06:19:18;27.45;;;12.95;;
47894;SDS011;33653;52.302;8.134;2023-02-12T06:21:47;28.30;;;13.20;;
47894;SDS011;33653;52.302;8.134;2023-02-12T06:24:16;30.30;;;13.77;;
47894;SDS011;33653;52.302;8.134;2023-02-12T06:26:44;25.42;;;13.30;;
47894;SDS011;33653;52.302;8.134;2023-02-12T06:29:14;25.42;;;14.60;;
47894;SDS011;33653;52.302;8.134;2023-02-12T06:31:43;28.23;;;13.93;;
47894;SDS011;33653;52.302;8.134;2023-02-12T06:34:11;24.73;;;14.00;;
47894;SDS011;33653;52.302;8.134;2023-02-12T06:36:41;30.92;;;14.00;;
47894;SDS011;33653;52.302;8.134;2023-02-12T06:39:11;29.98;;;14.52;;
47894;SDS011;33653;52.302;8.134;2023-02-12T06:41:41;35.38;;;15.25;;
47894;SDS011;33653;52.302;8.134;2023-02-12T06:44:10;28.50;;;14.60;;
47894;SDS011;33653;52.302;8.134;2023-02-12T06:46:38;31.92;;;14.57;;
47894;SDS011;33653;52.302;8.134;2023-02-12T06:49:07;31.00;;;13.90;;
47894;SDS011;33653;52.302;8.134;2023-02-12T06:51:38;29.67;;;14.80;;
47894;SDS011;33653;52.302;8.134;2023-02-12T06:54:13;29.17;;;13.47;;
47894;SDS011;33653;52.302;8.134;2023-02-12T06:56:43;23.58;;;13.73;;
47894;SDS011;33653;52.302;8.134;2023-02-12T06:59:12;33.65;;;14.07;;
47894;SDS011;33653;52.302;8.134;2023-02-12T07:01:42;39.42;;;14.35;;
47894;SDS011;33653;52.302;8.134;2023-02-12T07:04:10;25.83;;;13.88;;
47894;SDS011;33653;52.302;8.134;2023-02-12T07:06:38;35.80;;;16.33;;
47894;SDS011;33653;52.302;8.134;2023-02-12T07:09:06;28.50;;;15.02;;
47894;SDS011;33653;52.302;8.134;2023-02-12T07:11:35;29.65;;;15.35;;
47894;SDS011;33653;52.302;8.134;2023-02-12T07:14:05;27.50;;;14.15;;
47894;SDS011;33653;52.302;8.134;2023-02-12T07:16:33;29.70;;;14.40;;
47894;SDS011;33653;52.302;8.134;2023-02-12T07:19:01;28.52;;;15.55;;
47894;SDS011;33653;52.302;8.134;2023-02-12T07:21:29;26.33;;;14.85;;
47894;SDS011;33653;52.302;8.134;2023-02-12T07:23:58;27.50;;;15.13;;
47894;SDS011;33653;52.302;8.134;2023-02-12T07:26:26;39.28;;;15.80;;
47894;SDS011;33653;52.302;8.134;2023-02-12T07:29:04;35.95;;;15.98;;
47894;SDS011;33653;52.302;8.134;2023-02-12T07:31:31;27.70;;;13.77;;
47894;SDS011;33653;52.302;8.134;2023-02-12T07:34:08;32.83;;;14.20;;
47894;SDS011;33653;52.302;8.134;2023-02-12T07:39:30;27.98;;;12.98;;
47894;SDS011;33653;52.302;8.134;2023-02-12T07:41:59;37.28;;;15.27;;
47894;SDS011;33653;52.302;8.134;2023-02-12T07:44:27;31.65;;;14.55;;
47894;SDS011;33653;52.302;8.134;2023-02-12T07:46:55;27.10;;;14.07;;
47894;SDS011;33653;52.302;8.134;2023-02-12T07:49:23;24.92;;;13.85;;
47894;SDS011;33653;52.302;8.134;2023-02-12T07:51:51;30.52;;;14.80;;
47894;SDS011;33653;52.302;8.134;2023-02-12T07:54:18;33.78;;;14.52;;
47894;SDS011;33653;52.302;8.134;2023-02-12T07:56:46;31.02;;;15.27;;
47894;SDS011;33653;52.302;8.134;2023-02-12T07:59:17;31.30;;;13.63;;
47894;SDS011;33653;52.302;8.134;2023-02-12T08:01:49;41.40;;;15.43;;
47894;SDS011;33653;52.302;8.134;2023-02-12T08:04:19;33.80;;;14.50;;
47894;SDS011;33653;52.302;8.134;2023-02-12T08:06:50;29.30;;;14.15;;
47894;SDS011;33653;52.302;8.134;2023-02-12T08:09:21;29.88;;;14.52;;
47894;SDS011;33653;52.302;8.134;2023-02-12T08:11:52;29.02;;;13.43;;
47894;SDS011;33653;52.302;8.134;2023-02-12T08:14:20;34.30;;;15.05;;
47894;SDS011;33653;52.302;8.134;2023-02-12T08:16:49;29.50;;;14.15;;
47894;SDS011;33653;52.302;8.134;2023-02-12T08:19:18;38.78;;;15.45;;
47894;SDS011;33653;52.302;8.134;2023-02-12T08:21:52;43.88;;;15.88;;
47894;SDS011;33653;52.302;8.134;2023-02-12T08:24:25;38.55;;;15.82;;
47894;SDS011;33653;52.302;8.134;2023-02-12T08:26:54;39.70;;;15.35;;
47894;SDS011;33653;52.302;8.134;2023-02-12T08:29:23;31.40;;;13.40;;
47894;SDS011;33653;52.302;8.134;2023-02-12T08:31:56;39.35;;;14.57;;
47894;SDS011;33653;52.302;8.134;2023-02-12T08:34:28;35.58;;;14.38;;
47894;SDS011;33653;52.302;8.134;2023-02-12T08:36:59;32.70;;;14.90;;
47894;SDS011;33653;52.302;8.134;2023-02-12T08:39:28;31.77;;;14.25;;
47894;SDS011;33653;52.302;8.134;2023-02-12T08:41:56;37.70;;;15.50;;
47894;SDS011;33653;52.302;8.134;2023-02-12T08:44:25;35.03;;;15.55;;
47894;SDS011;33653;52.302;8.134;2023-02-12T08:46:56;33.67;;;14.70;;
47894;SDS011;33653;52.302;8.134;2023-02-12T08:49:26;37.45;;;14.00;;
47894;SDS011;33653;52.302;8.134;2023-02-12T08:51:56;37.88;;;15.23;;
47894;SDS011;33653;52.302;8.134;2023-02-12T08:54:26;50.97;;;16.15;;
47894;SDS011;33653;52.302;8.134;2023-02-12T08:57:01;30.35;;;13.30;;
47894;SDS011;33653;52.302;8.134;2023-02-12T08:59:29;32.03;;;15.00;;
47894;SDS011;33653;52.302;8.134;2023-02-12T09:01:57;31.08;;;15.20;;
47894;SDS011;33653;52.302;8.134;2023-02-12T09:04:26;29.05;;;14.35;;
47894;SDS011;33653;52.302;8.134;2023-02-12T09:06:56;27.13;;;14.40;;
47894;SDS011;33653;52.302;8.134;2023-02-12T09:09:24;26.42;;;14.43;;
47894;SDS011;33653;52.302;8.134;2023-02-12T09:11:52;31.58;;;15.02;;
47894;SDS011;33653;52.302;8.134;2023-02-12T09:14:21;32.97;;;13.70;;
47894;SDS011;33653;52.302;8.134;2023-02-12T09:16:56;25.08;;;13.65;;
47894;SDS011;33653;52.302;8.134;2023-02-12T09:19:33;30.67;;;14.55;;
47894;SDS011;33653;52.302;8.134;2023-02-12T09:22:02;29.02;;;13.90;;
47894;SDS011;33653;52.302;8.134;2023-02-12T09:24:30;31.52;;;14.68;;
47894;SDS011;33653;52.302;8.134;2023-02-12T09:27:02;24.73;;;13.63;;
47894;SDS011;33653;52.302;8.134;2023-02-12T09:29:30;32.15;;;15.07;;
47894;SDS011;33653;52.302;8.134;2023-02-12T09:32:00;27.63;;;13.57;;
47894;SDS011;33653;52.302;8.134;2023-02-12T09:34:35;29.13;;;14.43;;
47894;SDS011;33653;52.302;8.134;2023-02-12T09:37:05;28.95;;;13.25;;
47894;SDS011;33653;52.302;8.134;2023-02-12T09:39:32;29.77;;;13.93;;
47894;SDS011;33653;52.302;8.134;2023-02-12T09:47:20;26.92;;;12.45;;
47894;SDS011;33653;52.302;8.134;2023-02-12T09:50:36;26.02;;;13.18;;
47894;SDS011;33653;52.302;8.134;2023-02-12T09:53:15;28.35;;;13.57;;
47894;SDS011;33653;52.302;8.134;2023-02-12T09:55:55;23.80;;;11.77;;
47894;SDS011;33653;52.302;8.134;2023-02-12T10:01:16;24.95;;;12.38;;
47894;SDS011;33653;52.302;8.134;2023-02-12T10:03:47;21.02;;;11.45;;
47894;SDS011;33653;52.302;8.134;2023-02-12T10:06:35;20.38;;;11.18;;
47894;SDS011;33653;52.302;8.134;2023-02-12T10:09:28;20.05;;;11.15;;
47894;SDS011;33653;52.302;8.134;2023-02-12T10:12:19;18.75;;;10.40;;
47894;SDS011;33653;52.302;8.134;2023-02-12T10:15:06;21.80;;;11.30;;
47894;SDS011;33653;52.302;8.134;2023-02-12T10:18:01;21.33;;;9.75;;
47894;SDS011;33653;52.302;8.134;2023-02-12T10:21:03;14.27;;;9.40;;
47894;SDS011;33653;52.302;8.134;2023-02-12T10:26:45;17.30;;;10.02;;
47894;SDS011;33653;52.302;8.134;2023-02-12T10:29:19;14.63;;;8.27;;
47894;SDS011;33653;52.302;8.134;2023-02-12T10:34:31;18.20;;;9.88;;
47894;SDS011;33653;52.302;8.134;2023-02-12T10:37:03;17.83;;;9.65;;
47894;SDS011;33653;52.302;8.134;2023-02-12T10:39:58;17.45;;;8.52;;
47894;SDS011;33653;52.302;8.134;2023-02-12T10:42:35;13.25;;;7.07;;
47894;SDS011;33653;52.302;8.134;2023-02-12T10:45:04;14.27;;;7.72;;
47894;SDS011;33653;52.302;8.134;2023-02-12T10:47:43;11.77;;;7.30;;
47894;SDS011;33653;52.302;8.134;2023-02-12T10:53:08;17.08;;;8.45;;
47894;SDS011;33653;52.302;8.134;2023-02-12T10:55:44;14.70;;;8.63;;
47894;SDS011;33653;52.302;8.134;2023-02-12T10:58:22;14.10;;;8.02;;
47894;SDS011;33653;52.302;8.134;2023-02-12T11:00:59;14.10;;;7.80;;
47894;SDS011;33653;52.302;8.134;2023-02-12T11:03:30;14.13;;;7.57;;
47894;SDS011;33653;52.302;8.134;2023-02-12T11:08:43;10.93;;;6.70;;
47894;SDS011;33653;52.302;8.134;2023-02-12T11:11:13;14.57;;;8.25;;
47894;SDS011;33653;52.302;8.134;2023-02-12T11:14:23;15.07;;;7.65;;
47894;SDS011;33653;52.302;8.134;2023-02-12T11:16:53;16.20;;;8.68;;
47894;SDS011;33653;52.302;8.134;2023-02-12T11:19:30;14.67;;;7.70;;
47894;SDS011;33653;52.302;8.134;2023-02-12T11:22:13;14.73;;;7.55;;
47894;SDS011;33653;52.302;8.134;2023-02-12T11:24:44;13.55;;;8.30;;
47894;SDS011;33653;52.302;8.134;2023-02-12T11:27:21;12.55;;;7.70;;
47894;SDS011;33653;52.302;8.134;2023-02-12T11:32:44;17.10;;;8.52;;
47894;SDS011;33653;52.302;8.134;2023-02-12T11:37:52;15.00;;;8.15;;
47894;SDS011;33653;52.302;8.134;2023-02-12T11:40:31;19.13;;;8.00;;
47894;SDS011;33653;52.302;8.134;2023-02-12T11:43:01;15.93;;;8.65;;
47894;SDS011;33653;52.302;8.134;2023-02-12T11:45:36;15.95;;;8.32;;
47894;SDS011;33653;52.302;8.134;2023-02-12T11:48:24;13.75;;;7.93;;
47894;SDS011;33653;52.302;8.134;2023-02-12T11:50:58;16.08;;;8.02;;
47894;SDS011;33653;52.302;8.134;2023-02-12T11:53:31;15.13;;;7.55;;
47894;SDS011;33653;52.302;8.134;2023-02-12T11:56:03;16.17;;;7.28;;
47894;SDS011;33653;52.302;8.134;2023-02-12T11:58:34;10.98;;;7.50;;
47894;SDS011;33653;52.302;8.134;2023-02-12T12:14:32;16.02;;;7.28;;
47894;SDS011;33653;52.302;8.134;2023-02-12T12:26:56;10.18;;;6.00;;
47894;SDS011;33653;52.302;8.134;2023-02-12T12:32:11;9.38;;;5.55;;
47894;SDS011;33653;52.302;8.134;2023-02-12T12:34:42;11.18;;;5.95;;
47894;SDS011;33653;52.302;8.134;2023-02-12T12:43:00;9.75;;;5.97;;
47894;SDS011;33653;52.302;8.134;2023-02-12T12:45:46;11.80;;;6.30;;
47894;SDS011;33653;52.302;8.134;2023-02-12T12:54:19;8.27;;;5.10;;
47894;SDS011;33653;52.302;8.134;2023-02-12T13:05:52;9.93;;;6.05;;
47894;SDS011;33653;52.302;8.134;2023-02-12T13:17:43;13.88;;;6.38;;
47894;SDS011;33653;52.302;8.134;2023-02-12T13:23:37;8.88;;;4.60;;
47894;SDS011;33653;52.302;8.134;2023-02-12T13:28:52;8.38;;;4.03;;
47894;SDS011;33653;52.302;8.134;2023-02-12T13:31:27;8.73;;;3.70;;
47894;SDS011;33653;52.302;8.134;2023-02-12T13:34:02;6.68;;;2.97;;
47894;SDS011;33653;52.302;8.134;2023-02-12T13:36:34;5.88;;;3.55;;
47894;SDS011;33653;52.302;8.134;2023-02-12T13:39:15;4.20;;;2.55;;
47894;SDS011;33653;52.302;8.134;2023-02-12T13:45:16;6.97;;;3.42;;
47894;SDS011;33653;52.302;8.134;2023-02-12T13:50:59;7.75;;;3.40;;
47894;SDS011;33653;52.302;8.134;2023-02-12T13:56:50;4.03;;;2.42;;
47894;SDS011;33653;52.302;8.134;2023-02-12T14:01:59;5.38;;;3.30;;
47894;SDS011;33653;52.302;8.134;2023-02-12T14:04:34;4.20;;;2.95;;
47894;SDS011;33653;52.302;8.134;2023-02-12T14:07:11;6.28;;;2.92;;
47894;SDS011;33653;52.302;8.134;2023-02-12T14:14:52;3.30;;;2.35;;
47894;SDS011;33653;52.302;8.134;2023-02-12T14:22:59;7.00;;;3.28;;
47894;SDS011;33653;52.302;8.134;2023-02-12T14:28:21;5.25;;;3.10;;
47894;SDS011;33653;52.302;8.134;2023-02-12T14:33:44;8.80;;;3.63;;
47894;SDS011;33653;52.302;8.134;2023-02-12T14:41:50;6.35;;;3.55;;
47894;SDS011;33653;52.302;8.134;2023-02-12T15:05:26;5.75;;;3.72;;
47894;SDS011;33653;52.302;8.134;2023-02-12T15:08:28;7.63;;;4.40;;
47894;SDS011;33653;52.302;8.134;2023-02-12T15:14:11;6.82;;;4.22;;
47894;SDS011;33653;52.302;8.134;2023-02-12T15:22:29;8.57;;;4.40;;
47894;SDS011;33653;52.302;8.134;2023-02-12T15:25:22;6.85;;;4.50;;
47894;SDS011;33653;52.302;8.134;2023-02-12T15:27:56;6.97;;;3.95;;
47894;SDS011;33653;52.302;8.134;2023-02-12T15:30:33;6.82;;;3.70;;
47894;SDS011;33653;52.302;8.134;2023-02-12T15:33:03;6.05;;;3.95;;
47894;SDS011;33653;52.302;8.134;2023-02-12T15:35:33;8.65;;;4.75;;
47894;SDS011;33653;52.302;8.134;2023-02-12T15:38:04;6.90;;;4.32;;
47894;SDS011;33653;52.302;8.134;2023-02-12T15:40:33;7.25;;;3.97;;
47894;SDS011;33653;52.302;8.134;2023-02-12T15:43:02;7.97;;;4.70;;
47894;SDS011;33653;52.302;8.134;2023-02-12T15:45:33;6.63;;;4.03;;
47894;SDS011;33653;52.302;8.134;2023-02-12T15:50:50;9.50;;;3.95;;
47894;SDS011;33653;52.302;8.134;2023-02-12T15:53:25;7.43;;;4.10;;
47894;SDS011;33653;52.302;8.134;2023-02-12T15:55:56;6.32;;;3.30;;
47894;SDS011;33653;52.302;8.134;2023-02-12T15:58:27;7.50;;;4.00;;
47894;SDS011;33653;52.302;8.134;2023-02-12T16:01:01;9.77;;;4.78;;
47894;SDS011;33653;52.302;8.134;2023-02-12T16:06:08;8.68;;;4.55;;
47894;SDS011;33653;52.302;8.134;2023-02-12T16:08:44;7.97;;;4.43;;
47894;SDS011;33653;52.302;8.134;2023-02-12T16:11:21;6.80;;;4.03;;
47894;SDS011;33653;52.302;8.134;2023-02-12T16:13:50;8.27;;;4.15;;
47894;SDS011;33653;52.302;8.134;2023-02-12T16:19:12;9.35;;;4.43;;
47894;SDS011;33653;52.302;8.134;2023-02-12T16:21:50;8.02;;;4.47;;
47894;SDS011;33653;52.302;8.134;2023-02-12T16:24:39;7.95;;;4.45;;
47894;SDS011;33653;52.302;8.134;2023-02-12T16:29:44;6.60;;;4.07;;
47894;SDS011;33653;52.302;8.134;2023-02-12T16:32:37;9.25;;;4.75;;
47894;SDS011;33653;52.302;8.134;2023-02-12T16:45:31;7.70;;;4.13;;
47894;SDS011;33653;52.302;8.134;2023-02-12T16:48:18;10.00;;;4.18;;
47894;SDS011;33653;52.302;8.134;2023-02-12T16:50:57;8.98;;;4.05;;
47894;SDS011;33653;52.302;8.134;2023-02-12T16:53:27;10.25;;;5.13;;
47894;SDS011;33653;52.302;8.134;2023-02-12T16:56:02;9.77;;;4.45;;
47894;SDS011;33653;52.302;8.134;2023-02-12T16:58:31;12.38;;;5.32;;
47894;SDS011;33653;52.302;8.134;2023-02-12T17:01:03;7.40;;;4.70;;
47894;SDS011;33653;52.302;8.134;2023-02-12T17:03:32;12.63;;;5.40;;
47894;SDS011;33653;52.302;8.134;2023-02-12T17:06:00;6.13;;;4.00;;
47894;SDS011;33653;52.302;8.134;2023-02-12T17:08:28;9.20;;;5.18;;
47894;SDS011;33653;52.302;8.134;2023-02-12T17:10:56;9.75;;;4.97;;
47894;SDS011;33653;52.302;8.134;2023-02-12T17:13:24;6.40;;;4.32;;
47894;SDS011;33653;52.302;8.134;2023-02-12T17:15:53;10.55;;;4.82;;
47894;SDS011;33653;52.302;8.134;2023-02-12T17:18:24;11.60;;;5.22;;
47894;SDS011;33653;52.302;8.134;2023-02-12T17:20:57;10.52;;;5.93;;
47894;SDS011;33653;52.302;8.134;2023-02-12T17:23:29;8.35;;;5.30;;
47894;SDS011;33653;52.302;8.134;2023-02-12T17:25:58;10.40;;;5.22;;
47894;SDS011;33653;52.302;8.134;2023-02-12T17:28:26;8.88;;;5.22;;
47894;SDS011;33653;52.302;8.134;2023-02-12T17:30:54;11.18;;;5.65;;
47894;SDS011;33653;52.302;8.134;2023-02-12T17:33:23;13.52;;;6.45;;
47894;SDS011;33653;52.302;8.134;2023-02-12T17:35:51;13.10;;;6.05;;
47894;SDS011;33653;52.302;8.134;2023-02-12T17:38:19;12.63;;;6.43;;
47894;SDS011;33653;52.302;8.134;2023-02-12T17:40:47;11.85;;;6.40;;
47894;SDS011;33653;52.302;8.134;2023-02-12T17:43:15;10.35;;;6.32;;
47894;SDS011;33653;52.302;8.134;2023-02-12T17:45:43;12.50;;;6.78;;
47894;SDS011;33653;52.302;8.134;2023-02-12T17:48:15;9.70;;;5.60;;
47894;SDS011;33653;52.302;8.134;2023-02-12T17:50:43;15.60;;;6.80;;
47894;SDS011;33653;52.302;8.134;2023-02-12T17:53:11;19.52;;;8.35;;
47894;SDS011;33653;52.302;8.134;2023-02-12T17:55:39;15.65;;;7.90;;
47894;SDS011;33653;52.302;8.134;2023-02-12T17:58:07;14.73;;;7.95;;
47894;SDS011;33653;52.302;8.134;2023-02-12T18:00:35;15.05;;;7.63;;
47894;SDS011;33653;52.302;8.134;2023-02-12T18:03:03;14.18;;;7.43;;
47894;SDS011;33653;52.302;8.134;2023-02-12T18:05:31;14.70;;;7.50;;
47894;SDS011;33653;52.302;8.134;2023-02-12T18:07:59;13.85;;;6.80;;
47894;SDS011;33653;52.302;8.134;2023-02-12T18:10:29;11.13;;;6.38;;
47894;SDS011;33653;52.302;8.134;2023-02-12T18:12:57;12.70;;;6.13;;
47894;SDS011;33653;52.302;8.134;2023-02-12T18:15:25;12.35;;;6.25;;
47894;SDS011;33653;52.302;8.134;2023-02-12T18:17:54;12.50;;;7.47;;
47894;SDS011;33653;52.302;8.134;2023-02-12T18:20:21;15.15;;;6.78;;
47894;SDS011;33653;52.302;8.134;2023-02-12T18:22:49;16.98;;;8.23;;
47894;SDS011;33653;52.302;8.134;2023-02-12T18:25:17;12.75;;;6.82;;
47894;SDS011;33653;52.302;8.134;2023-02-12T18:27:45;13.70;;;7.05;;
47894;SDS011;33653;52.302;8.134;2023-02-12T18:30:13;14.30;;;7.68;;
47894;SDS011;33653;52.302;8.134;2023-02-12T18:32:41;11.73;;;7.43;;
47894;SDS011;33653;52.302;8.134;2023-02-12T18:35:09;15.98;;;7.80;;
47894;SDS011;33653;52.302;8.134;2023-02-12T18:37:37;16.90;;;7.60;;
47894;SDS011;33653;52.302;8.134;2023-02-12T18:40:09;15.32;;;7.43;;
47894;SDS011;33653;52.302;8.134;2023-02-12T18:42:38;9.70;;;7.20;;
47894;SDS011;33653;52.302;8.134;2023-02-12T18:45:06;13.15;;;7.68;;
47894;SDS011;33653;52.302;8.134;2023-02-12T18:47:34;16.60;;;8.30;;